sensor_id;sensor_type;location;lat;lon;timestamp;P1;durP1;ratioP1;P2;durP2;ratioP2
23282;SDS011;11810;51.178;3.878;2022-12-18T00:00:27;136.70;;;49.17;;
23282;SDS011;11810;51.178;3.878;2022-12-18T00:02:53;108.70;;;45.55;;
23282;SDS011;11810;51.178;3.878;2022-12-18T00:05:36;118.25;;;49.38;;
23282;SDS011;11810;51.178;3.878;2022-12-18T00:08:02;111.22;;;46.30;;
23282;SDS011;11810;51.178;3.878;2022-12-18T00:10:28;108.95;;;44.25;;
23282;SDS011;11810;51.178;3.878;2022-12-18T00:12:54;109.20;;;45.53;;
23282;SDS011;11810;51.178;3.878;2022-12-18T00:15:20;108.38;;;45.05;;
23282;SDS011;11810;51.178;3.878;2022-12-18T00:17:46;104.80;;;42.47;;
23282;SDS011;11810;51.178;3.878;2022-12-18T00:21:38;93.97;;;41.45;;
23282;SDS011;11810;51.178;3.878;2022-12-18T00:24:04;100.72;;;41.03;;
23282;SDS011;11810;51.178;3.878;2022-12-18T00:26:31;106.40;;;41.70;;
23282;SDS011;11810;51.178;3.878;2022-12-18T00:30:39;95.47;;;38.85;;
23282;SDS011;11810;51.178;3.878;2022-12-18T00:35:40;102.57;;;41.20;;
23282;SDS011;11810;51.178;3.878;2022-12-18T00:39:40;92.78;;;37.67;;
23282;SDS011;11810;51.178;3.878;2022-12-18T00:43:41;94.25;;;39.70;;
23282;SDS011;11810;51.178;3.878;2022-12-18T00:46:07;96.93;;;40.50;;
23282;SDS011;11810;51.178;3.878;2022-12-18T00:48:33;107.82;;;41.85;;
23282;SDS011;11810;51.178;3.878;2022-12-18T00:50:59;89.68;;;38.55;;
23282;SDS011;11810;51.178;3.878;2022-12-18T00:56:42;94.00;;;38.05;;
23282;SDS011;11810;51.178;3.878;2022-12-18T00:59:08;92.95;;;38.53;;
23282;SDS011;11810;51.178;3.878;2022-12-18T01:01:34;97.75;;;39.97;;
23282;SDS011;11810;51.178;3.878;2022-12-18T01:05:55;91.45;;;36.50;;
23282;SDS011;11810;51.178;3.878;2022-12-18T01:08:21;94.63;;;36.63;;
23282;SDS011;11810;51.178;3.878;2022-12-18T01:14:44;82.65;;;34.78;;
23282;SDS011;11810;51.178;3.878;2022-12-18T01:17:45;94.88;;;37.28;;
23282;SDS011;11810;51.178;3.878;2022-12-18T01:20:11;85.20;;;35.90;;
23282;SDS011;11810;51.178;3.878;2022-12-18T01:22:38;77.03;;;33.33;;
23282;SDS011;11810;51.178;3.878;2022-12-18T01:25:04;94.10;;;36.85;;
23282;SDS011;11810;51.178;3.878;2022-12-18T01:27:31;85.82;;;35.88;;
23282;SDS011;11810;51.178;3.878;2022-12-18T01:30:47;85.97;;;35.50;;
23282;SDS011;11810;51.178;3.878;2022-12-18T01:33:32;94.35;;;38.83;;
23282;SDS011;11810;51.178;3.878;2022-12-18T01:35:58;94.78;;;37.13;;
23282;SDS011;11810;51.178;3.878;2022-12-18T01:47:43;77.28;;;33.45;;
23282;SDS011;11810;51.178;3.878;2022-12-18T01:50:14;77.88;;;35.17;;
23282;SDS011;11810;51.178;3.878;2022-12-18T01:53:02;98.25;;;38.55;;
23282;SDS011;11810;51.178;3.878;2022-12-18T01:56:50;78.47;;;36.22;;
23282;SDS011;11810;51.178;3.878;2022-12-18T02:01:49;83.88;;;35.20;;
23282;SDS011;11810;51.178;3.878;2022-12-18T02:04:51;87.32;;;36.95;;
23282;SDS011;11810;51.178;3.878;2022-12-18T02:07:23;87.93;;;36.38;;
23282;SDS011;11810;51.178;3.878;2022-12-18T02:10:36;83.72;;;35.55;;
23282;SDS011;11810;51.178;3.878;2022-12-18T02:13:43;85.78;;;36.60;;
23282;SDS011;11810;51.178;3.878;2022-12-18T02:15:54;79.82;;;34.55;;
23282;SDS011;11810;51.178;3.878;2022-12-18T02:18:33;79.13;;;35.67;;
23282;SDS011;11810;51.178;3.878;2022-12-18T02:24:04;80.90;;;36.08;;
23282;SDS011;11810;51.178;3.878;2022-12-18T02:27:53;91.28;;;38.78;;
23282;SDS011;11810;51.178;3.878;2022-12-18T02:34:55;86.40;;;37.67;;
23282;SDS011;11810;51.178;3.878;2022-12-18T02:39:54;79.63;;;34.42;;
23282;SDS011;11810;51.178;3.878;2022-12-18T02:43:59;89.75;;;37.28;;
23282;SDS011;11810;51.178;3.878;2022-12-18T02:46:33;89.18;;;37.10;;
23282;SDS011;11810;51.178;3.878;2022-12-18T02:49:12;86.53;;;36.08;;
23282;SDS011;11810;51.178;3.878;2022-12-18T02:53:58;87.03;;;34.80;;
23282;SDS011;11810;51.178;3.878;2022-12-18T03:01:42;78.88;;;34.38;;
23282;SDS011;11810;51.178;3.878;2022-12-18T03:04:26;85.60;;;35.97;;
23282;SDS011;11810;51.178;3.878;2022-12-18T03:08:12;85.93;;;34.47;;
23282;SDS011;11810;51.178;3.878;2022-12-18T03:10:45;87.63;;;34.45;;
23282;SDS011;11810;51.178;3.878;2022-12-18T03:14:00;88.63;;;36.03;;
23282;SDS011;11810;51.178;3.878;2022-12-18T03:17:59;81.78;;;34.15;;
23282;SDS011;11810;51.178;3.878;2022-12-18T03:20:34;81.00;;;34.65;;
23282;SDS011;11810;51.178;3.878;2022-12-18T03:27:02;79.65;;;32.55;;
23282;SDS011;11810;51.178;3.878;2022-12-18T03:29:36;80.72;;;34.95;;
23282;SDS011;11810;51.178;3.878;2022-12-18T03:32:07;82.85;;;34.47;;
23282;SDS011;11810;51.178;3.878;2022-12-18T03:34:36;87.90;;;37.30;;
23282;SDS011;11810;51.178;3.878;2022-12-18T03:37:04;77.07;;;35.35;;
23282;SDS011;11810;51.178;3.878;2022-12-18T03:39:31;80.22;;;36.60;;
23282;SDS011;11810;51.178;3.878;2022-12-18T03:49:05;85.57;;;35.40;;
23282;SDS011;11810;51.178;3.878;2022-12-18T03:51:43;90.47;;;37.90;;
23282;SDS011;11810;51.178;3.878;2022-12-18T03:54:18;93.57;;;36.05;;
23282;SDS011;11810;51.178;3.878;2022-12-18T03:57:06;87.93;;;35.95;;
23282;SDS011;11810;51.178;3.878;2022-12-18T03:59:37;87.60;;;37.08;;
23282;SDS011;11810;51.178;3.878;2022-12-18T04:03:04;81.88;;;35.17;;
23282;SDS011;11810;51.178;3.878;2022-12-18T04:08:05;85.57;;;35.85;;
23282;SDS011;11810;51.178;3.878;2022-12-18T04:10:31;78.75;;;34.42;;
23282;SDS011;11810;51.178;3.878;2022-12-18T04:16:06;75.68;;;33.03;;
23282;SDS011;11810;51.178;3.878;2022-12-18T04:18:32;72.80;;;34.15;;
23282;SDS011;11810;51.178;3.878;2022-12-18T04:20:57;78.72;;;34.60;;
23282;SDS011;11810;51.178;3.878;2022-12-18T04:23:23;77.97;;;34.58;;
23282;SDS011;11810;51.178;3.878;2022-12-18T04:25:49;81.63;;;34.08;;
23282;SDS011;11810;51.178;3.878;2022-12-18T04:31:07;80.28;;;32.13;;
23282;SDS011;11810;51.178;3.878;2022-12-18T04:33:32;80.85;;;33.30;;
23282;SDS011;11810;51.178;3.878;2022-12-18T04:35:58;80.70;;;34.28;;
23282;SDS011;11810;51.178;3.878;2022-12-18T04:40:08;73.25;;;32.78;;
23282;SDS011;11810;51.178;3.878;2022-12-18T04:42:34;72.40;;;33.05;;
23282;SDS011;11810;51.178;3.878;2022-12-18T04:49:10;76.43;;;32.60;;
23282;SDS011;11810;51.178;3.878;2022-12-18T04:51:36;71.72;;;32.88;;
23282;SDS011;11810;51.178;3.878;2022-12-18T04:54:02;75.85;;;33.25;;
23282;SDS011;11810;51.178;3.878;2022-12-18T04:58:13;73.03;;;32.08;;
23282;SDS011;11810;51.178;3.878;2022-12-18T05:01:12;74.32;;;32.60;;
23282;SDS011;11810;51.178;3.878;2022-12-18T05:07:13;64.13;;;29.83;;
23282;SDS011;11810;51.178;3.878;2022-12-18T05:09:39;75.13;;;30.45;;
23282;SDS011;11810;51.178;3.878;2022-12-18T05:13:11;69.55;;;30.58;;
23282;SDS011;11810;51.178;3.878;2022-12-18T05:16:13;76.07;;;31.25;;
23282;SDS011;11810;51.178;3.878;2022-12-18T05:18:40;70.13;;;30.55;;
23282;SDS011;11810;51.178;3.878;2022-12-18T05:21:06;77.70;;;30.90;;
23282;SDS011;11810;51.178;3.878;2022-12-18T05:34:14;68.57;;;29.73;;
23282;SDS011;11810;51.178;3.878;2022-12-18T05:36:40;69.15;;;28.77;;
23282;SDS011;11810;51.178;3.878;2022-12-18T05:42:15;65.50;;;27.77;;
23282;SDS011;11810;51.178;3.878;2022-12-18T05:44:41;57.72;;;26.02;;
23282;SDS011;11810;51.178;3.878;2022-12-18T05:47:08;66.78;;;27.65;;
23282;SDS011;11810;51.178;3.878;2022-12-18T05:49:34;59.08;;;26.90;;
23282;SDS011;11810;51.178;3.878;2022-12-18T05:51:59;61.53;;;27.17;;
23282;SDS011;11810;51.178;3.878;2022-12-18T05:54:28;60.67;;;25.98;;
23282;SDS011;11810;51.178;3.878;2022-12-18T05:56:54;60.25;;;26.63;;
23282;SDS011;11810;51.178;3.878;2022-12-18T05:59:20;58.85;;;26.13;;
23282;SDS011;11810;51.178;3.878;2022-12-18T06:01:46;55.63;;;25.15;;
23282;SDS011;11810;51.178;3.878;2022-12-18T06:04:12;65.53;;;25.95;;
23282;SDS011;11810;51.178;3.878;2022-12-18T06:06:38;58.78;;;26.70;;
23282;SDS011;11810;51.178;3.878;2022-12-18T06:11:19;63.90;;;26.13;;
23282;SDS011;11810;51.178;3.878;2022-12-18T06:13:49;68.00;;;28.10;;
23282;SDS011;11810;51.178;3.878;2022-12-18T06:16:16;57.83;;;26.67;;
23282;SDS011;11810;51.178;3.878;2022-12-18T06:19:29;65.53;;;26.90;;
23282;SDS011;11810;51.178;3.878;2022-12-18T06:21:55;58.72;;;26.88;;
23282;SDS011;11810;51.178;3.878;2022-12-18T06:25:26;64.93;;;28.13;;
23282;SDS011;11810;51.178;3.878;2022-12-18T06:30:29;61.72;;;25.50;;
23282;SDS011;11810;51.178;3.878;2022-12-18T06:33:22;54.72;;;27.40;;
23282;SDS011;11810;51.178;3.878;2022-12-18T06:35:52;65.50;;;26.67;;
23282;SDS011;11810;51.178;3.878;2022-12-18T06:38:18;60.83;;;29.05;;
23282;SDS011;11810;51.178;3.878;2022-12-18T06:44:23;57.10;;;27.88;;
23282;SDS011;11810;51.178;3.878;2022-12-18T06:46:48;56.00;;;27.77;;
23282;SDS011;11810;51.178;3.878;2022-12-18T06:49:14;59.45;;;27.75;;
23282;SDS011;11810;51.178;3.878;2022-12-18T06:53:34;67.05;;;29.98;;
23282;SDS011;11810;51.178;3.878;2022-12-18T06:56:03;50.95;;;26.73;;
23282;SDS011;11810;51.178;3.878;2022-12-18T07:01:25;82.28;;;36.67;;
23282;SDS011;11810;51.178;3.878;2022-12-18T07:06:32;62.65;;;30.10;;
23282;SDS011;11810;51.178;3.878;2022-12-18T07:08:59;57.60;;;28.35;;
23282;SDS011;11810;51.178;3.878;2022-12-18T07:11:24;50.95;;;26.92;;
23282;SDS011;11810;51.178;3.878;2022-12-18T07:13:50;55.65;;;29.38;;
23282;SDS011;11810;51.178;3.878;2022-12-18T07:16:18;62.38;;;27.20;;
23282;SDS011;11810;51.178;3.878;2022-12-18T07:18:47;57.80;;;25.95;;
23282;SDS011;11810;51.178;3.878;2022-12-18T07:21:13;63.92;;;28.75;;
23282;SDS011;11810;51.178;3.878;2022-12-18T07:23:41;58.13;;;28.58;;
23282;SDS011;11810;51.178;3.878;2022-12-18T07:26:08;56.30;;;26.60;;
23282;SDS011;11810;51.178;3.878;2022-12-18T07:28:36;56.72;;;26.05;;
23282;SDS011;11810;51.178;3.878;2022-12-18T07:31:04;55.35;;;27.63;;
23282;SDS011;11810;51.178;3.878;2022-12-18T07:33:31;81.00;;;38.75;;
23282;SDS011;11810;51.178;3.878;2022-12-18T07:37:29;55.63;;;28.88;;
23282;SDS011;11810;51.178;3.878;2022-12-18T07:40:30;64.25;;;34.25;;
23282;SDS011;11810;51.178;3.878;2022-12-18T07:43:31;60.63;;;30.30;;
23282;SDS011;11810;51.178;3.878;2022-12-18T07:47:33;49.72;;;24.05;;
23282;SDS011;11810;51.178;3.878;2022-12-18T07:50:33;40.47;;;21.90;;
23282;SDS011;11810;51.178;3.878;2022-12-18T07:53:49;47.17;;;23.58;;
23282;SDS011;11810;51.178;3.878;2022-12-18T07:56:15;44.67;;;22.25;;
23282;SDS011;11810;51.178;3.878;2022-12-18T08:04:33;43.40;;;20.42;;
23282;SDS011;11810;51.178;3.878;2022-12-18T08:08:34;43.35;;;21.40;;
23282;SDS011;11810;51.178;3.878;2022-12-18T08:12:34;36.45;;;20.10;;
23282;SDS011;11810;51.178;3.878;2022-12-18T08:15:00;36.38;;;20.33;;
23282;SDS011;11810;51.178;3.878;2022-12-18T08:17:26;42.35;;;20.73;;
23282;SDS011;11810;51.178;3.878;2022-12-18T08:19:51;38.85;;;20.35;;
23282;SDS011;11810;51.178;3.878;2022-12-18T08:25:46;41.38;;;21.63;;
23282;SDS011;11810;51.178;3.878;2022-12-18T08:28:12;42.95;;;21.17;;
23282;SDS011;11810;51.178;3.878;2022-12-18T08:30:38;39.15;;;20.98;;
23282;SDS011;11810;51.178;3.878;2022-12-18T08:35:37;38.80;;;20.75;;
23282;SDS011;11810;51.178;3.878;2022-12-18T08:38:03;37.92;;;20.13;;
23282;SDS011;11810;51.178;3.878;2022-12-18T08:42:38;41.60;;;21.73;;
23282;SDS011;11810;51.178;3.878;2022-12-18T08:45:40;44.53;;;20.95;;
23282;SDS011;11810;51.178;3.878;2022-12-18T08:48:05;39.72;;;20.38;;
23282;SDS011;11810;51.178;3.878;2022-12-18T08:50:31;36.30;;;19.95;;
23282;SDS011;11810;51.178;3.878;2022-12-18T08:53:39;38.25;;;20.40;;
23282;SDS011;11810;51.178;3.878;2022-12-18T08:56:05;39.38;;;20.95;;
23282;SDS011;11810;51.178;3.878;2022-12-18T09:03:21;77.30;;;32.35;;
23282;SDS011;11810;51.178;3.878;2022-12-18T09:07:41;34.22;;;18.35;;
23282;SDS011;11810;51.178;3.878;2022-12-18T09:10:45;37.42;;;19.27;;
23282;SDS011;11810;51.178;3.878;2022-12-18T09:13:13;35.00;;;19.63;;
23282;SDS011;11810;51.178;3.878;2022-12-18T09:17:42;41.53;;;19.27;;
23282;SDS011;11810;51.178;3.878;2022-12-18T09:20:08;32.05;;;19.45;;
23282;SDS011;11810;51.178;3.878;2022-12-18T09:27:43;31.38;;;17.63;;
23282;SDS011;11810;51.178;3.878;2022-12-18T09:30:12;31.90;;;19.27;;
23282;SDS011;11810;51.178;3.878;2022-12-18T09:32:38;34.13;;;18.45;;
23282;SDS011;11810;51.178;3.878;2022-12-18T09:35:04;31.48;;;17.52;;
23282;SDS011;11810;51.178;3.878;2022-12-18T09:38:45;30.17;;;17.83;;
23282;SDS011;11810;51.178;3.878;2022-12-18T09:41:50;36.05;;;17.90;;
23282;SDS011;11810;51.178;3.878;2022-12-18T09:44:48;35.50;;;19.35;;
23282;SDS011;11810;51.178;3.878;2022-12-18T09:50:04;33.83;;;18.92;;
23282;SDS011;11810;51.178;3.878;2022-12-18T09:56:47;35.70;;;19.42;;
23282;SDS011;11810;51.178;3.878;2022-12-18T10:01:48;36.67;;;20.23;;
23282;SDS011;11810;51.178;3.878;2022-12-18T10:04:14;32.53;;;18.40;;
23282;SDS011;11810;51.178;3.878;2022-12-18T10:06:52;30.75;;;18.63;;
23282;SDS011;11810;51.178;3.878;2022-12-18T10:10:34;33.35;;;19.00;;
23282;SDS011;11810;51.178;3.878;2022-12-18T10:13:15;35.22;;;18.65;;
23282;SDS011;11810;51.178;3.878;2022-12-18T10:21:55;41.25;;;22.98;;
23282;SDS011;11810;51.178;3.878;2022-12-18T10:27:31;39.08;;;22.30;;
23282;SDS011;11810;51.178;3.878;2022-12-18T10:31:52;33.60;;;20.33;;
23282;SDS011;11810;51.178;3.878;2022-12-18T10:34:18;38.75;;;20.95;;
23282;SDS011;11810;51.178;3.878;2022-12-18T10:38:07;36.63;;;20.35;;
23282;SDS011;11810;51.178;3.878;2022-12-18T10:40:49;32.10;;;19.33;;
23282;SDS011;11810;51.178;3.878;2022-12-18T10:48:25;38.83;;;22.67;;
23282;SDS011;11810;51.178;3.878;2022-12-18T10:52:57;55.35;;;25.55;;
23282;SDS011;11810;51.178;3.878;2022-12-18T10:55:35;44.97;;;23.25;;
23282;SDS011;11810;51.178;3.878;2022-12-18T11:07:03;39.28;;;20.50;;
23282;SDS011;11810;51.178;3.878;2022-12-18T11:10:02;36.72;;;19.45;;
23282;SDS011;11810;51.178;3.878;2022-12-18T11:13:08;43.75;;;21.98;;
23282;SDS011;11810;51.178;3.878;2022-12-18T11:15:41;35.22;;;20.10;;
23282;SDS011;11810;51.178;3.878;2022-12-18T11:18:15;45.25;;;25.10;;
23282;SDS011;11810;51.178;3.878;2022-12-18T11:20:46;48.00;;;25.15;;
23282;SDS011;11810;51.178;3.878;2022-12-18T11:23:24;46.65;;;24.23;;
23282;SDS011;11810;51.178;3.878;2022-12-18T11:25:55;37.65;;;20.80;;
23282;SDS011;11810;51.178;3.878;2022-12-18T11:31:12;38.97;;;22.02;;
23282;SDS011;11810;51.178;3.878;2022-12-18T11:34:01;40.10;;;22.80;;
23282;SDS011;11810;51.178;3.878;2022-12-18T11:36:43;40.33;;;22.02;;
23282;SDS011;11810;51.178;3.878;2022-12-18T11:41:13;41.03;;;23.10;;
23282;SDS011;11810;51.178;3.878;2022-12-18T11:46:02;37.05;;;20.98;;
23282;SDS011;11810;51.178;3.878;2022-12-18T11:48:55;40.05;;;20.40;;
23282;SDS011;11810;51.178;3.878;2022-12-18T11:52:57;36.15;;;21.38;;
23282;SDS011;11810;51.178;3.878;2022-12-18T11:55:28;36.65;;;21.92;;
23282;SDS011;11810;51.178;3.878;2022-12-18T12:06:24;35.25;;;21.38;;
23282;SDS011;11810;51.178;3.878;2022-12-18T12:16:25;41.15;;;21.45;;
23282;SDS011;11810;51.178;3.878;2022-12-18T12:25:11;35.50;;;22.70;;
23282;SDS011;11810;51.178;3.878;2022-12-18T12:29:02;43.33;;;23.20;;
23282;SDS011;11810;51.178;3.878;2022-12-18T12:39:08;38.60;;;23.55;;
23282;SDS011;11810;51.178;3.878;2022-12-18T12:41:39;45.08;;;25.23;;
23282;SDS011;11810;51.178;3.878;2022-12-18T12:44:28;36.03;;;22.42;;
23282;SDS011;11810;51.178;3.878;2022-12-18T12:47:14;37.10;;;22.35;;
23282;SDS011;11810;51.178;3.878;2022-12-18T12:50:14;39.70;;;22.05;;
23282;SDS011;11810;51.178;3.878;2022-12-18T12:52:47;38.65;;;23.58;;
23282;SDS011;11810;51.178;3.878;2022-12-18T12:55:21;36.35;;;21.35;;
23282;SDS011;11810;51.178;3.878;2022-12-18T13:00:43;38.42;;;22.58;;
23282;SDS011;11810;51.178;3.878;2022-12-18T13:10:12;36.30;;;22.42;;
23282;SDS011;11810;51.178;3.878;2022-12-18T13:12:51;42.85;;;23.67;;
23282;SDS011;11810;51.178;3.878;2022-12-18T13:15:21;39.67;;;23.73;;
23282;SDS011;11810;51.178;3.878;2022-12-18T13:17:48;34.42;;;22.00;;
23282;SDS011;11810;51.178;3.878;2022-12-18T13:22:23;38.92;;;23.08;;
23282;SDS011;11810;51.178;3.878;2022-12-18T13:24:53;43.47;;;25.25;;
23282;SDS011;11810;51.178;3.878;2022-12-18T13:28:05;41.38;;;24.25;;
23282;SDS011;11810;51.178;3.878;2022-12-18T13:41:40;38.22;;;24.52;;
23282;SDS011;11810;51.178;3.878;2022-12-18T13:46:54;42.17;;;25.20;;
23282;SDS011;11810;51.178;3.878;2022-12-18T13:50:23;43.20;;;24.55;;
23282;SDS011;11810;51.178;3.878;2022-12-18T13:59:56;44.67;;;25.13;;
23282;SDS011;11810;51.178;3.878;2022-12-18T14:02:24;46.38;;;26.08;;
23282;SDS011;11810;51.178;3.878;2022-12-18T14:04:53;46.22;;;25.42;;
23282;SDS011;11810;51.178;3.878;2022-12-18T14:07:23;42.50;;;25.08;;
23282;SDS011;11810;51.178;3.878;2022-12-18T14:11:19;51.17;;;27.80;;
23282;SDS011;11810;51.178;3.878;2022-12-18T14:14:19;53.53;;;27.70;;
23282;SDS011;11810;51.178;3.878;2022-12-18T14:16:45;49.88;;;28.85;;
23282;SDS011;11810;51.178;3.878;2022-12-18T14:19:15;48.40;;;26.23;;
23282;SDS011;11810;51.178;3.878;2022-12-18T14:21:46;52.72;;;28.23;;
23282;SDS011;11810;51.178;3.878;2022-12-18T14:24:18;54.13;;;28.08;;
23282;SDS011;11810;51.178;3.878;2022-12-18T14:26:47;50.03;;;26.60;;
23282;SDS011;11810;51.178;3.878;2022-12-18T14:29:21;53.20;;;29.63;;
23282;SDS011;11810;51.178;3.878;2022-12-18T14:32:05;54.92;;;28.30;;
23282;SDS011;11810;51.178;3.878;2022-12-18T14:34:33;48.17;;;26.58;;
23282;SDS011;11810;51.178;3.878;2022-12-18T14:36:59;50.72;;;26.90;;
23282;SDS011;11810;51.178;3.878;2022-12-18T14:39:25;51.05;;;27.38;;
23282;SDS011;11810;51.178;3.878;2022-12-18T14:41:51;51.45;;;28.52;;
23282;SDS011;11810;51.178;3.878;2022-12-18T14:44:18;53.67;;;29.30;;
23282;SDS011;11810;51.178;3.878;2022-12-18T14:46:46;53.10;;;27.52;;
23282;SDS011;11810;51.178;3.878;2022-12-18T14:49:29;49.47;;;27.67;;
23282;SDS011;11810;51.178;3.878;2022-12-18T14:52:01;55.83;;;28.88;;
23282;SDS011;11810;51.178;3.878;2022-12-18T14:55:24;50.28;;;26.45;;
23282;SDS011;11810;51.178;3.878;2022-12-18T14:57:51;51.47;;;27.42;;
23282;SDS011;11810;51.178;3.878;2022-12-18T15:00:21;55.80;;;28.70;;
23282;SDS011;11810;51.178;3.878;2022-12-18T15:02:49;47.20;;;25.95;;
23282;SDS011;11810;51.178;3.878;2022-12-18T15:07:56;52.03;;;28.70;;
23282;SDS011;11810;51.178;3.878;2022-12-18T15:10:24;53.05;;;27.40;;
23282;SDS011;11810;51.178;3.878;2022-12-18T15:21:26;52.25;;;27.20;;
23282;SDS011;11810;51.178;3.878;2022-12-18T15:23:55;49.13;;;27.13;;
23282;SDS011;11810;51.178;3.878;2022-12-18T15:28:31;54.33;;;27.77;;
23282;SDS011;11810;51.178;3.878;2022-12-18T15:31:28;56.85;;;29.17;;
23282;SDS011;11810;51.178;3.878;2022-12-18T15:36:22;51.20;;;28.13;;
23282;SDS011;11810;51.178;3.878;2022-12-18T15:38:52;51.78;;;27.98;;
23282;SDS011;11810;51.178;3.878;2022-12-18T15:41:19;52.78;;;27.67;;
23282;SDS011;11810;51.178;3.878;2022-12-18T15:44:30;53.42;;;27.85;;
23282;SDS011;11810;51.178;3.878;2022-12-18T15:47:29;55.53;;;28.05;;
23282;SDS011;11810;51.178;3.878;2022-12-18T15:50:30;76.50;;;45.13;;
23282;SDS011;11810;51.178;3.878;2022-12-18T15:52:56;62.22;;;34.60;;
23282;SDS011;11810;51.178;3.878;2022-12-18T15:55:23;57.75;;;31.33;;
23282;SDS011;11810;51.178;3.878;2022-12-18T15:58:08;56.55;;;31.63;;
23282;SDS011;11810;51.178;3.878;2022-12-18T16:00:36;58.75;;;32.40;;
23282;SDS011;11810;51.178;3.878;2022-12-18T16:03:31;49.28;;;29.40;;
23282;SDS011;11810;51.178;3.878;2022-12-18T16:05:57;55.35;;;27.75;;
23282;SDS011;11810;51.178;3.878;2022-12-18T16:08:25;56.60;;;28.02;;
23282;SDS011;11810;51.178;3.878;2022-12-18T16:10:50;55.92;;;31.10;;
23282;SDS011;11810;51.178;3.878;2022-12-18T16:13:16;124.18;;;90.32;;
23282;SDS011;11810;51.178;3.878;2022-12-18T16:16:33;63.67;;;39.83;;
23282;SDS011;11810;51.178;3.878;2022-12-18T16:20:33;55.63;;;30.05;;
23282;SDS011;11810;51.178;3.878;2022-12-18T16:24:34;59.95;;;29.88;;
23282;SDS011;11810;51.178;3.878;2022-12-18T16:27:01;54.60;;;28.15;;
23282;SDS011;11810;51.178;3.878;2022-12-18T16:29:27;118.28;;;61.65;;
23282;SDS011;11810;51.178;3.878;2022-12-18T16:31:54;124.15;;;65.13;;
23282;SDS011;11810;51.178;3.878;2022-12-18T16:34:29;70.20;;;37.85;;
23282;SDS011;11810;51.178;3.878;2022-12-18T16:36:56;54.90;;;27.65;;
23282;SDS011;11810;51.178;3.878;2022-12-18T16:39:24;52.63;;;27.27;;
23282;SDS011;11810;51.178;3.878;2022-12-18T16:41:50;54.55;;;27.55;;
23282;SDS011;11810;51.178;3.878;2022-12-18T16:44:16;57.70;;;29.23;;
23282;SDS011;11810;51.178;3.878;2022-12-18T16:46:42;53.50;;;28.08;;
23282;SDS011;11810;51.178;3.878;2022-12-18T16:49:10;53.80;;;28.45;;
23282;SDS011;11810;51.178;3.878;2022-12-18T16:51:36;56.30;;;29.17;;
23282;SDS011;11810;51.178;3.878;2022-12-18T16:54:02;166.63;;;79.75;;
23282;SDS011;11810;51.178;3.878;2022-12-18T16:56:28;87.85;;;44.50;;
23282;SDS011;11810;51.178;3.878;2022-12-18T16:59:38;155.27;;;75.65;;
23282;SDS011;11810;51.178;3.878;2022-12-18T17:02:04;123.45;;;60.88;;
23282;SDS011;11810;51.178;3.878;2022-12-18T17:04:30;68.28;;;37.00;;
23282;SDS011;11810;51.178;3.878;2022-12-18T17:07:40;59.88;;;29.85;;
23282;SDS011;11810;51.178;3.878;2022-12-18T17:10:06;54.58;;;28.40;;
23282;SDS011;11810;51.178;3.878;2022-12-18T17:12:31;55.97;;;27.85;;
23282;SDS011;11810;51.178;3.878;2022-12-18T17:15:33;58.25;;;29.33;;
23282;SDS011;11810;51.178;3.878;2022-12-18T17:17:59;58.10;;;29.58;;
23282;SDS011;11810;51.178;3.878;2022-12-18T17:20:25;56.55;;;27.40;;
23282;SDS011;11810;51.178;3.878;2022-12-18T17:22:50;55.80;;;28.35;;
23282;SDS011;11810;51.178;3.878;2022-12-18T17:25:16;56.50;;;28.02;;
23282;SDS011;11810;51.178;3.878;2022-12-18T17:27:42;61.65;;;30.33;;
23282;SDS011;11810;51.178;3.878;2022-12-18T17:30:07;59.38;;;30.63;;
23282;SDS011;11810;51.178;3.878;2022-12-18T17:32:34;59.45;;;30.45;;
23282;SDS011;11810;51.178;3.878;2022-12-18T17:34:59;55.35;;;29.05;;
23282;SDS011;11810;51.178;3.878;2022-12-18T17:37:25;56.22;;;27.80;;
23282;SDS011;11810;51.178;3.878;2022-12-18T17:39:51;56.85;;;29.63;;
23282;SDS011;11810;51.178;3.878;2022-12-18T17:42:45;58.28;;;30.13;;
23282;SDS011;11810;51.178;3.878;2022-12-18T17:45:11;57.50;;;29.25;;
23282;SDS011;11810;51.178;3.878;2022-12-18T17:47:37;58.70;;;28.13;;
23282;SDS011;11810;51.178;3.878;2022-12-18T17:50:02;56.88;;;30.20;;
23282;SDS011;11810;51.178;3.878;2022-12-18T17:52:45;61.60;;;29.77;;
23282;SDS011;11810;51.178;3.878;2022-12-18T17:55:11;56.17;;;28.35;;
23282;SDS011;11810;51.178;3.878;2022-12-18T17:57:37;59.50;;;29.88;;
23282;SDS011;11810;51.178;3.878;2022-12-18T18:00:03;60.10;;;29.73;;
23282;SDS011;11810;51.178;3.878;2022-12-18T18:02:30;57.42;;;27.95;;
23282;SDS011;11810;51.178;3.878;2022-12-18T18:04:56;57.75;;;28.73;;
23282;SDS011;11810;51.178;3.878;2022-12-18T18:07:21;58.50;;;28.70;;
23282;SDS011;11810;51.178;3.878;2022-12-18T18:09:47;65.78;;;29.45;;
23282;SDS011;11810;51.178;3.878;2022-12-18T18:12:13;58.55;;;29.20;;
23282;SDS011;11810;51.178;3.878;2022-12-18T18:16:49;58.75;;;28.45;;
23282;SDS011;11810;51.178;3.878;2022-12-18T18:19:19;66.10;;;32.90;;
23282;SDS011;11810;51.178;3.878;2022-12-18T18:21:48;65.85;;;31.05;;
23282;SDS011;11810;51.178;3.878;2022-12-18T18:24:16;65.20;;;30.98;;
23282;SDS011;11810;51.178;3.878;2022-12-18T18:26:44;65.85;;;29.77;;
23282;SDS011;11810;51.178;3.878;2022-12-18T18:29:17;64.15;;;30.58;;
23282;SDS011;11810;51.178;3.878;2022-12-18T18:31:44;60.22;;;29.42;;
23282;SDS011;11810;51.178;3.878;2022-12-18T18:35:51;62.92;;;29.70;;
23282;SDS011;11810;51.178;3.878;2022-12-18T18:38:17;65.38;;;30.05;;
23282;SDS011;11810;51.178;3.878;2022-12-18T18:40:43;68.18;;;31.33;;
23282;SDS011;11810;51.178;3.878;2022-12-18T18:43:09;69.00;;;31.88;;
23282;SDS011;11810;51.178;3.878;2022-12-18T18:45:35;67.57;;;31.80;;
23282;SDS011;11810;51.178;3.878;2022-12-18T18:48:01;63.83;;;32.03;;
23282;SDS011;11810;51.178;3.878;2022-12-18T18:51:53;64.95;;;31.75;;
23282;SDS011;11810;51.178;3.878;2022-12-18T18:54:20;74.45;;;33.92;;
23282;SDS011;11810;51.178;3.878;2022-12-18T18:56:49;69.43;;;31.05;;
23282;SDS011;11810;51.178;3.878;2022-12-18T18:59:15;67.85;;;32.78;;
23282;SDS011;11810;51.178;3.878;2022-12-18T19:01:42;69.55;;;31.80;;
23282;SDS011;11810;51.178;3.878;2022-12-18T19:04:08;73.10;;;32.72;;
23282;SDS011;11810;51.178;3.878;2022-12-18T19:06:34;68.05;;;31.35;;
23282;SDS011;11810;51.178;3.878;2022-12-18T19:09:00;75.63;;;33.88;;
23282;SDS011;11810;51.178;3.878;2022-12-18T19:11:28;73.93;;;33.95;;
23282;SDS011;11810;51.178;3.878;2022-12-18T19:14:13;68.75;;;31.48;;
23282;SDS011;11810;51.178;3.878;2022-12-18T19:16:40;69.80;;;32.08;;
23282;SDS011;11810;51.178;3.878;2022-12-18T19:19:06;72.28;;;33.17;;
23282;SDS011;11810;51.178;3.878;2022-12-18T19:23:39;78.18;;;33.75;;
23282;SDS011;11810;51.178;3.878;2022-12-18T19:26:05;78.55;;;33.83;;
23282;SDS011;11810;51.178;3.878;2022-12-18T19:28:32;73.75;;;33.40;;
23282;SDS011;11810;51.178;3.878;2022-12-18T19:31:00;74.60;;;32.78;;
23282;SDS011;11810;51.178;3.878;2022-12-18T19:33:28;81.38;;;34.20;;
23282;SDS011;11810;51.178;3.878;2022-12-18T19:35:57;66.82;;;31.35;;
23282;SDS011;11810;51.178;3.878;2022-12-18T19:39:33;72.70;;;32.40;;
23282;SDS011;11810;51.178;3.878;2022-12-18T19:41:58;77.93;;;32.75;;
23282;SDS011;11810;51.178;3.878;2022-12-18T19:44:24;75.25;;;33.35;;